LEIB/IBZ METAR and TAF weather

Enter ICAO airport designator
Station Type Date Time Source
LEIB METAR 2022/09/26 10:30 UTC NOAA

LEIB 261030Z 05009KT 9999 FEW030 SCT042 23/16 Q1012 TEMPO TSRA FEW030CB


Station Type Date Time Source
LEIB Decoded METAR 2022/09/26 10:30 UTC NOAA

Ibiza / Es Codola, Spain (LEIB) 38-52N 001-23E 12M
Sep 26, 2022 - 06:30 AM EDT / 2022.09.26 1030 UTC
Wind: from the NE (050 degrees) at 10 MPH (9 KT):0
Visibility: greater than 7 mile(s):0
Sky conditions: partly cloudy
Weather: Cumulonimbus clouds observed
Temperature: 73 F (23 C)
Dew Point: 60 F (16 C)
Relative Humidity: 64%
Pressure (altimeter): 29.88 in. Hg (1012 hPa)
ob: LEIB 261030Z 05009KT 9999 FEW030 SCT042 23/16 Q1012 TEMPO TSRA FEW030CB
cycle: 10

Station Type Date Time Source
LEIB TAF 2022/09/26 09:28 UTC NOAA

TAF LEIB 260800Z 2609/2709 06012KT 9999 FEW020 SCT030 TX25/2612Z TN17/2705Z PROB30
TEMPO 2609/2616 3000 TSRA FEW020CB
BECMG 2618/2620 34007KT
TEMPO 2620/2704 3000 TSRA FEW020CB

Example: see airport list